Time;durP1;ratioP1;P1;durP2;ratioP2;P2;SDS_P1;SDS_P2;PMS_P1;PMS_P2;Temp;Humidity;BMP_temperature;BMP_pressure;BME280_temperature;BME280_humidity;BME280_pressure;Samples;Min_cycle;Max_cycle;Signal;HPM_P1;HPM_P2
2021/06/16 00:01:24;;;;;;;3.30;2.05;;;;;;;17.85;100.00;99474.16;6231323;22;20013;-76
2021/06/16 00:03:50;;;;;;;2.83;2.03;;;;;;;17.82;100.00;99491.56;6219076;22;20012;-75
2021/06/16 00:06:37;;;;;;;5.07;2.15;;;;;;;17.88;100.00;99479.13;6218997;23;20023;-75
2021/06/16 00:09:05;;;;;;;3.58;2.38;;;;;;;17.88;100.00;99493.72;6191851;22;20100;-76
2021/06/16 00:11:33;;;;;;;5.18;2.25;;;;;;;17.88;100.00;99478.28;6218919;22;20020;-76
2021/06/16 00:14:00;;;;;;;3.92;2.13;;;;;;;17.84;100.00;99476.84;6192193;22;20001;-75
2021/06/16 00:16:26;;;;;;;5.15;2.55;;;;;;;17.77;100.00;99481.56;6220387;22;20008;-75
2021/06/16 00:18:54;;;;;;;5.30;2.33;;;;;;;17.77;100.00;99475.59;6220205;22;20024;-75
2021/06/16 00:21:23;;;;;;;4.60;2.28;;;;;;;17.71;100.00;99481.94;6220504;22;20057;-75
2021/06/16 00:23:53;;;;;;;5.43;2.78;;;;;;;17.77;100.00;99478.16;6193246;22;20005;-75
2021/06/16 00:26:32;;;;;;;4.97;2.75;;;;;;;17.65;100.00;99484.13;6220579;22;20023;-75
2021/06/16 00:29:21;;;;;;;5.10;2.90;;;;;;;17.75;100.00;99482.56;6193728;22;20013;-75
2021/06/16 00:31:46;;;;;;;7.40;2.80;;;;;;;17.66;100.00;99480.63;6220086;22;20041;-76
2021/06/16 00:34:25;;;;;;;6.82;2.80;;;;;;;17.68;100.00;99478.75;6193563;22;20024;-75
2021/06/16 00:36:51;;;;;;;6.85;3.00;;;;;;;17.57;100.00;99474.31;6220025;22;20016;-75
2021/06/16 00:39:19;;;;;;;4.20;2.50;;;;;;;17.60;100.00;99474.13;6219895;22;20011;-75
2021/06/16 00:41:45;;;;;;;7.30;3.00;;;;;;;17.60;100.00;99471.56;6220163;22;20013;-75
2021/06/16 00:44:16;;;;;;;6.93;2.78;;;;;;;17.52;100.00;99470.38;6220451;22;20005;-75
2021/06/16 00:46:54;;;;;;;4.32;2.42;;;;;;;17.58;100.00;99467.44;6220530;22;20016;-75
2021/06/16 00:49:29;;;;;;;6.07;2.78;;;;;;;17.55;100.00;99462.50;6193918;22;20028;-76
2021/06/16 00:52:12;;;;;;;5.43;2.70;;;;;;;17.70;100.00;99458.91;6220085;22;20049;-76
2021/06/16 00:54:44;;;;;;;3.45;2.28;;;;;;;17.76;100.00;99453.38;6193026;22;20522;-75
2021/06/16 00:57:38;;;;;;;5.03;2.53;;;;;;;17.79;100.00;99451.41;6220068;23;20082;-76
2021/06/16 01:00:17;;;;;;;5.57;2.40;;;;;;;17.87;100.00;99438.03;6220185;23;20020;-75
2021/06/16 01:03:35;;;;;;;3.60;2.38;;;;;;;17.95;100.00;99439.19;6220353;22;20044;-76
2021/06/16 01:06:31;;;;;;;2.80;2.38;;;;;;;17.95;100.00;99451.22;6193551;22;20028;-75
2021/06/16 01:09:35;;;;;;;3.63;2.47;;;;;;;17.99;100.00;99448.34;6220106;22;20024;-77
2021/06/16 01:12:24;;;;;;;3.22;2.63;;;;;;;17.97;100.00;99454.53;6194153;22;20009;-74
2021/06/16 01:15:24;;;;;;;5.10;2.40;;;;;;;18.00;100.00;99455.16;6220168;22;20012;-76
2021/06/16 01:18:02;;;;;;;4.18;2.38;;;;;;;18.08;100.00;99459.78;6220040;23;20015;-76
2021/06/16 01:20:34;;;;;;;4.28;2.63;;;;;;;18.15;100.00;99455.88;6220293;22;20009;-75
2021/06/16 01:23:10;;;;;;;;;;;;;;;18.13;100.00;99455.16;6220653;22;20015;-76
2021/06/16 01:26:13;;;;;;;4.93;2.58;;;;;;;18.22;100.00;99462.25;6220141;22;20263;-75
2021/06/16 01:29:44;;;;;;;3.70;2.65;;;;;;;18.23;100.00;99461.31;6220222;22;20019;-74
2021/06/16 01:32:13;;;;;;;3.55;2.83;;;;;;;18.17;100.00;99460.00;6202037;23;20291;-74
2021/06/16 01:34:42;;;;;;;3.47;2.67;;;;;;;18.18;100.00;99460.81;6221247;23;20012;-75
2021/06/16 01:37:15;;;;;;;3.92;2.90;;;;;;;18.19;100.00;99463.28;6221235;23;20034;-74
2021/06/16 01:39:42;;;;;;;4.72;3.30;;;;;;;18.20;100.00;99454.63;6220216;23;20009;-74
2021/06/16 01:42:18;;;;;;;3.92;3.15;;;;;;;18.13;100.00;99457.72;6192905;22;20050;-75
2021/06/16 01:44:49;;;;;;;4.30;3.20;;;;;;;18.19;100.00;99454.72;6219630;22;20379;-74
2021/06/16 01:47:23;;;;;;;5.38;3.15;;;;;;;18.18;100.00;99460.81;6219473;22;20282;-74
2021/06/16 01:50:03;;;;;;;4.20;3.33;;;;;;;18.09;100.00;99459.69;6219099;22;20012;-74
2021/06/16 01:52:38;;;;;;;5.03;3.70;;;;;;;18.14;100.00;99460.19;6219462;22;20028;-74
2021/06/16 01:55:10;;;;;;;6.05;3.95;;;;;;;18.13;100.00;99450.00;6219331;22;20012;-75
2021/06/16 01:57:44;;;;;;;5.22;3.58;;;;;;;18.08;100.00;99442.56;6219785;22;20005;-75
2021/06/16 02:00:11;;;;;;;4.78;3.45;;;;;;;18.08;100.00;99441.78;6193509;22;20358;-75
2021/06/16 02:02:50;;;;;;;3.45;3.15;;;;;;;18.15;100.00;99438.69;6219481;22;20015;-75
2021/06/16 02:05:22;;;;;;;4.82;3.42;;;;;;;18.13;100.00;99437.13;6193288;22;20032;-75
2021/06/16 02:08:02;;;;;;;;;;;;;;;18.09;100.00;99440.84;6220068;22;20028;-74
2021/06/16 02:10:36;;;;;;;4.13;3.13;;;;;;;18.08;100.00;99434.88;6219451;22;19919;-74
2021/06/16 02:13:24;;;;;;;4.10;3.17;;;;;;;18.05;100.00;99436.81;6219262;23;20005;-74
2021/06/16 02:15:59;;;;;;;4.13;3.05;;;;;;;18.05;100.00;99421.38;6218968;22;20016;-74
2021/06/16 02:18:58;;;;;;;4.78;2.97;;;;;;;18.15;100.00;99430.13;6193025;22;20021;-74
2021/06/16 02:21:24;;;;;;;3.20;2.90;;;;;;;18.19;100.00;99432.41;6219546;23;20023;-75
2021/06/16 02:23:51;;;;;;;3.10;2.80;;;;;;;18.12;100.00;99413.16;6219463;23;20011;-74
2021/06/16 02:26:18;;;;;;;4.10;2.90;;;;;;;18.20;100.00;99425.50;6219669;22;20013;-74
2021/06/16 02:28:44;;;;;;;4.05;2.95;;;;;;;18.23;100.00;99435.59;6192872;22;20103;-74
2021/06/16 02:31:20;;;;;;;3.97;2.92;;;;;;;18.24;100.00;99431.28;6218970;22;20101;-74
2021/06/16 02:33:51;;;;;;;4.30;3.17;;;;;;;18.32;99.70;99434.16;6192688;23;20015;-74
2021/06/16 02:36:22;;;;;;;5.97;3.50;;;;;;;18.36;99.16;99436.38;6192697;22;20036;-74
2021/06/16 02:38:58;;;;;;;4.93;3.83;;;;;;;18.36;99.68;99441.53;6192259;22;20019;-74
2021/06/16 02:41:26;;;;;;;5.78;4.13;;;;;;;18.47;98.40;99446.81;6192667;22;20035;-74
2021/06/16 02:43:53;;;;;;;5.25;3.90;;;;;;;18.58;96.27;99449.47;6219125;22;20008;-74
2021/06/16 02:46:33;;;;;;;5.55;3.95;;;;;;;18.62;96.87;99450.91;6219136;22;20032;-73
2021/06/16 02:49:03;;;;;;;4.85;3.58;;;;;;;18.68;96.33;99453.06;6219224;22;20112;-74
2021/06/16 02:51:31;;;;;;;4.95;3.90;;;;;;;18.70;95.79;99461.50;6218707;22;20382;-74
2021/06/16 02:54:16;;;;;;;4.40;3.92;;;;;;;18.77;95.39;99465.31;6192783;22;20035;-74
2021/06/16 02:56:45;;;;;;;4.90;3.80;;;;;;;18.76;95.26;99476.53;6218684;22;20016;-73
2021/06/16 02:59:12;;;;;;;4.20;3.80;;;;;;;18.85;94.74;99459.63;6218794;22;20012;-73
2021/06/16 03:01:48;;;;;;;4.22;3.42;;;;;;;18.78;95.19;99471.25;6192332;22;20008;-74
2021/06/16 03:04:19;;;;;;;5.07;3.78;;;;;;;18.89;94.37;99469.59;6218899;22;20009;-73
2021/06/16 03:06:55;;;;;;;6.53;3.72;;;;;;;19.00;92.47;99474.81;6218949;22;20355;-73
2021/06/16 03:09:29;;;;;;;6.03;3.60;;;;;;;18.90;93.55;99472.97;6218943;22;20028;-74
2021/06/16 03:11:56;;;;;;;5.45;3.20;;;;;;;18.95;93.39;99489.78;6219212;22;20005;-74
2021/06/16 03:14:24;;;;;;;5.85;3.50;;;;;;;18.93;94.17;99494.22;6218677;22;20009;-74
2021/06/16 03:16:58;;;;;;;6.10;3.58;;;;;;;18.91;93.65;99492.69;6191924;22;20468;-73
2021/06/16 03:19:24;;;;;;;5.00;3.15;;;;;;;18.94;93.56;99502.75;6218952;22;20024;-74
2021/06/16 03:21:53;;;;;;;3.85;3.35;;;;;;;18.91;93.81;99508.13;6218767;22;20356;-74
2021/06/16 03:24:22;;;;;;;4.72;2.75;;;;;;;18.84;95.14;99512.88;6218749;22;20008;-74
2021/06/16 03:26:51;;;;;;;3.55;3.00;;;;;;;18.92;93.60;99507.19;6218828;22;20016;-74
2021/06/16 03:29:26;;;;;;;3.08;2.70;;;;;;;18.80;94.80;99497.72;6219197;22;20023;-74
2021/06/16 03:32:08;;;;;;;3.47;3.17;;;;;;;18.82;95.00;99509.59;6218662;22;20266;-74
2021/06/16 03:34:36;;;;;;;3.80;3.08;;;;;;;18.77;95.84;99509.09;6192449;22;20008;-75
2021/06/16 03:37:07;;;;;;;4.93;3.38;;;;;;;18.72;96.98;99511.16;6192553;22;20009;-74
2021/06/16 03:39:48;;;;;;;3.65;3.05;;;;;;;18.66;97.99;99509.00;6218681;23;20009;-74
2021/06/16 03:42:23;;;;;;;3.72;2.80;;;;;;;18.62;98.61;99507.56;6218784;22;20444;-74
2021/06/16 03:44:54;;;;;;;3.50;3.20;;;;;;;18.63;98.28;99509.22;6218951;22;20021;-74
2021/06/16 03:47:29;;;;;;;4.70;3.00;;;;;;;18.71;97.37;99500.97;6218793;22;20016;-76
2021/06/16 03:49:57;;;;;;;3.20;2.85;;;;;;;18.74;96.93;99517.00;6192112;23;20314;-74
2021/06/16 03:52:42;;;;;;;4.68;3.10;;;;;;;18.68;97.45;99509.72;6221485;22;20020;-78
2021/06/16 03:55:24;;;;;;;3.58;2.90;;;;;;;18.77;96.71;99510.84;6221014;22;20447;-76
2021/06/16 03:58:09;;;;;;;3.35;2.78;;;;;;;18.72;98.36;99529.19;6190034;22;20112;-75
2021/06/16 04:00:45;;;;;;;3.38;2.83;;;;;;;18.59;99.81;99537.84;6220202;22;20116;-74
2021/06/16 04:03:18;;;;;;;4.28;2.90;;;;;;;18.43;100.00;99548.34;6220094;23;20016;-76
2021/06/16 04:05:51;;;;;;;3.67;2.78;;;;;;;18.37;100.00;99547.91;6191872;22;20467;-76
2021/06/16 04:08:20;;;;;;;3.20;2.90;;;;;;;18.30;100.00;99559.53;6193957;23;20339;-75
2021/06/16 04:10:57;;;;;;;3.22;2.90;;;;;;;18.40;100.00;99558.81;6220133;22;20044;-77
2021/06/16 04:13:42;;;;;;;3.95;2.85;;;;;;;18.44;100.00;99560.28;6218446;22;20101;-76
2021/06/16 04:16:09;;;;;;;6.60;3.25;;;;;;;18.59;100.00;99556.69;6219925;22;20008;-75
2021/06/16 04:18:40;;;;;;;3.60;3.08;;;;;;;18.32;100.00;99555.94;6193464;22;20051;-74
2021/06/16 04:21:07;;;;;;;5.13;3.30;;;;;;;18.26;100.00;99560.66;6218791;22;20012;-74
2021/06/16 04:23:47;;;;;;;4.00;3.55;;;;;;;18.45;100.00;99559.38;6219395;22;20015;-74
2021/06/16 04:26:16;;;;;;;5.90;4.00;;;;;;;18.62;100.00;99569.34;6219171;22;20016;-72
2021/06/16 04:28:42;;;;;;;4.22;3.47;;;;;;;18.45;100.00;99555.97;6218566;22;20066;-72
2021/06/16 04:31:08;;;;;;;5.88;4.07;;;;;;;18.65;100.00;99560.59;6218846;23;20013;-71
2021/06/16 04:33:35;;;;;;;4.75;3.58;;;;;;;18.60;100.00;99560.09;6218535;22;20064;-72
2021/06/16 04:36:02;;;;;;;4.25;3.50;;;;;;;18.83;100.00;99546.47;6191572;23;20008;-72
2021/06/16 04:38:35;;;;;;;3.72;3.40;;;;;;;18.84;100.00;99542.97;6218594;22;20008;-70
2021/06/16 04:41:01;;;;;;;6.07;3.50;;;;;;;18.91;100.00;99550.19;6218032;22;20011;-70
2021/06/16 04:43:27;;;;;;;3.97;3.58;;;;;;;18.83;100.00;99557.63;6218285;22;20013;-71
2021/06/16 04:45:53;;;;;;;3.28;2.97;;;;;;;18.56;100.00;99569.75;6218071;22;20389;-72
2021/06/16 04:48:19;;;;;;;3.20;2.90;;;;;;;18.56;100.00;99574.91;6218409;22;20028;-71
2021/06/16 04:50:46;;;;;;;2.97;2.70;;;;;;;18.54;100.00;99571.63;6219703;22;20004;-72
2021/06/16 04:53:12;;;;;;;4.10;2.88;;;;;;;18.52;100.00;99578.63;6192040;22;20020;-70
2021/06/16 04:55:39;;;;;;;4.63;2.90;;;;;;;18.34;100.00;99585.00;6218503;23;20011;-70
2021/06/16 04:58:04;;;;;;;3.28;2.33;;;;;;;18.26;100.00;99591.56;6219043;23;20012;-70
2021/06/16 05:00:31;;;;;;;2.53;2.33;;;;;;;18.30;100.00;99591.25;6218576;22;20109;-70
2021/06/16 05:02:59;;;;;;;2.60;2.40;;;;;;;18.36;100.00;99582.31;6219049;22;20008;-70
2021/06/16 05:05:26;;;;;;;4.05;2.67;;;;;;;18.31;100.00;99580.03;6192387;22;20284;-71
2021/06/16 05:07:53;;;;;;;2.75;2.55;;;;;;;18.36;100.00;99592.59;6218460;22;20008;-71
2021/06/16 05:10:18;;;;;;;3.58;3.20;;;;;;;18.38;100.00;99590.75;6217626;23;20456;-71
2021/06/16 05:12:44;;;;;;;3.17;2.88;;;;;;;18.36;100.00;99588.25;6190564;22;20004;-71
2021/06/16 05:15:13;;;;;;;5.80;3.03;;;;;;;18.24;100.00;99593.41;6217528;22;20012;-70
2021/06/16 05:17:40;;;;;;;4.18;3.10;;;;;;;18.46;100.00;99581.59;6190181;22;20035;-71
2021/06/16 05:20:09;;;;;;;7.50;5.63;;;;;;;18.65;100.00;99582.03;6217029;22;20013;-71
2021/06/16 05:22:35;;;;;;;16.45;10.95;;;;;;;18.87;100.00;99579.66;6217270;22;20009;-71
2021/06/16 05:25:05;;;;;;;3.95;3.47;;;;;;;18.94;100.00;99586.03;6218107;22;20386;-71
2021/06/16 05:27:32;;;;;;;18.73;10.63;;;;;;;19.15;100.00;99578.59;6217860;22;20554;-71
2021/06/16 05:29:58;;;;;;;4.38;3.20;;;;;;;19.23;100.00;99583.19;6219388;22;20016;-72
2021/06/16 05:32:25;;;;;;;16.73;13.18;;;;;;;19.77;100.00;99569.81;6192212;22;20080;-72
2021/06/16 05:34:52;;;;;;;4.45;4.00;;;;;;;20.17;99.36;99569.47;6192538;22;20028;-72
2021/06/16 05:37:19;;;;;;;4.00;2.90;;;;;;;20.33;97.77;99577.78;6218913;22;20035;-71
2021/06/16 05:39:45;;;;;;;3.30;3.00;;;;;;;20.28;98.20;99565.19;6218639;22;20064;-71
2021/06/16 05:42:11;;;;;;;3.47;3.17;;;;;;;20.83;95.55;99579.97;6192139;23;20008;-71
2021/06/16 05:44:37;;;;;;;4.55;3.67;;;;;;;20.79;94.79;99581.13;6192336;22;20236;-71
2021/06/16 05:47:05;;;;;;;4.20;3.80;;;;;;;21.01;94.46;99583.75;6218810;22;20024;-71
2021/06/16 05:49:31;;;;;;;4.07;3.67;;;;;;;20.48;95.85;99579.22;6192559;22;20044;-71
2021/06/16 05:51:57;;;;;;;5.47;4.20;;;;;;;21.09;95.00;99583.16;6219208;22;20008;-71
2021/06/16 05:54:23;;;;;;;5.20;3.50;;;;;;;21.47;90.87;99578.41;6218732;22;20009;-72
2021/06/16 05:56:49;;;;;;;3.60;3.30;;;;;;;21.46;90.99;99587.09;6219015;22;20105;-72
2021/06/16 05:59:14;;;;;;;3.22;2.92;;;;;;;21.50;90.02;99585.91;6192103;22;20353;-72
2021/06/16 06:01:41;;;;;;;3.25;2.95;;;;;;;21.10;92.43;99613.22;6192335;22;20008;-72
2021/06/16 06:04:07;;;;;;;4.13;1.75;;;;;;;21.28;88.62;99625.56;6219023;22;20019;-72
2021/06/16 06:06:36;;;;;;;2.78;2.45;;;;;;;20.88;92.41;99614.03;6191719;22;20028;-71
2021/06/16 06:09:05;;;;;;;2.90;2.47;;;;;;;20.65;92.45;99610.59;6192254;22;20008;-72
2021/06/16 06:11:31;;;;;;;2.63;2.08;;;;;;;21.48;89.00;99598.97;6191815;22;20012;-72
2021/06/16 06:13:57;;;;;;;3.88;1.90;;;;;;;21.26;88.62;99604.19;6191630;23;20031;-72
2021/06/16 06:16:25;;;;;;;2.75;2.17;;;;;;;21.67;82.93;99606.09;6218955;23;20475;-72
2021/06/16 06:18:51;;;;;;;3.10;2.20;;;;;;;22.17;81.84;99592.50;6218794;23;20016;-72
2021/06/16 06:21:18;;;;;;;3.25;2.10;;;;;;;22.16;80.90;99593.47;6218867;22;20363;-72
2021/06/16 06:23:43;;;;;;;3.40;2.70;;;;;;;22.68;79.88;99591.78;6191731;23;20039;-72
2021/06/16 06:26:09;;;;;;;4.28;2.70;;;;;;;21.93;78.12;99591.09;6219108;22;20363;-72
2021/06/16 06:28:36;;;;;;;3.13;2.30;;;;;;;22.37;78.62;99601.25;6218874;22;20008;-72
2021/06/16 06:31:02;;;;;;;2.75;2.25;;;;;;;22.64;78.25;99590.41;6218557;22;20048;-73
2021/06/16 06:33:28;;;;;;;3.30;2.45;;;;;;;22.21;78.07;99588.72;6218600;22;20270;-73
2021/06/16 06:35:53;;;;;;;3.67;2.70;;;;;;;21.82;78.77;99573.84;6192276;22;20025;-73
2021/06/16 06:38:18;;;;;;;3.28;2.75;;;;;;;21.56;81.55;99591.44;6192446;22;20017;-73
2021/06/16 06:40:44;;;;;;;2.67;2.38;;;;;;;21.99;80.53;99590.59;6218895;22;20020;-72
2021/06/16 06:43:09;;;;;;;3.22;2.30;;;;;;;21.91;79.42;99601.56;6191529;22;20276;-72
2021/06/16 06:45:35;;;;;;;3.28;2.67;;;;;;;21.60;81.90;99586.81;6218438;22;20031;-72
2021/06/16 06:48:00;;;;;;;3.30;2.72;;;;;;;21.57;84.25;99600.81;6191635;22;20337;-72
2021/06/16 06:50:26;;;;;;;3.05;2.55;;;;;;;21.28;85.37;99604.88;6218310;22;20009;-71
2021/06/16 06:52:52;;;;;;;3.92;2.45;;;;;;;21.56;84.64;99604.38;6191940;22;20302;-72
2021/06/16 06:55:18;;;;;;;4.05;2.20;;;;;;;21.93;82.83;99612.63;6219550;22;20008;-72
2021/06/16 06:57:44;;;;;;;3.30;2.60;;;;;;;21.29;87.21;99601.34;6218405;22;20011;-72
2021/06/16 07:00:12;;;;;;;6.60;2.80;;;;;;;21.25;87.52;99604.31;6191708;23;20387;-71
2021/06/16 07:02:37;;;;;;;5.00;3.55;;;;;;;21.63;87.18;99590.94;6218403;22;20048;-71
2021/06/16 07:05:04;;;;;;;4.88;3.90;;;;;;;21.88;86.41;99581.13;6191696;23;20004;-72
2021/06/16 07:07:29;;;;;;;6.53;4.30;;;;;;;20.97;88.70;99597.81;6218324;22;20032;-71
2021/06/16 07:09:55;;;;;;;5.18;4.00;;;;;;;20.50;91.49;99588.50;6218502;23;20370;-72
2021/06/16 07:12:21;;;;;;;4.60;4.20;;;;;;;20.95;89.80;99581.63;6217974;22;20104;-71
2021/06/16 07:14:47;;;;;;;4.68;3.60;;;;;;;20.79;89.70;99594.06;6218497;23;20013;-71
2021/06/16 07:17:12;;;;;;;7.72;3.92;;;;;;;20.77;90.14;99595.09;6218378;22;20023;-72
2021/06/16 07:19:38;;;;;;;5.75;4.03;;;;;;;20.67;90.52;99610.47;6191358;22;20008;-71
2021/06/16 07:22:04;;;;;;;5.45;4.00;;;;;;;20.61;89.89;99604.03;6218012;22;20016;-71
2021/06/16 07:24:29;;;;;;;6.18;3.75;;;;;;;20.45;91.28;99613.03;6191841;22;20005;-72
2021/06/16 07:26:55;;;;;;;4.22;3.83;;;;;;;20.69;89.80;99624.94;6219484;22;20100;-72
2021/06/16 07:29:21;;;;;;;4.35;3.70;;;;;;;21.58;86.38;99627.53;6220349;22;20035;-72
2021/06/16 07:31:48;;;;;;;4.88;4.05;;;;;;;22.32;83.96;99603.41;6219988;23;20024;-72
2021/06/16 07:34:14;;;;;;;4.75;4.03;;;;;;;22.51;82.40;99605.28;6219410;22;20107;-72
2021/06/16 07:36:39;;;;;;;5.30;3.60;;;;;;;22.87;80.84;99589.28;6219433;23;20020;-72
2021/06/16 07:39:05;;;;;;;5.15;3.83;;;;;;;23.33;79.00;99594.78;6219438;22;20008;-71
2021/06/16 07:41:30;;;;;;;6.78;4.20;;;;;;;22.81;79.96;99587.19;6219163;23;20009;-71
2021/06/16 07:43:57;;;;;;;7.85;4.03;;;;;;;23.44;78.09;99606.81;6220196;22;20344;-71
2021/06/16 07:46:23;;;;;;;5.90;4.25;;;;;;;22.95;78.63;99611.00;6219507;22;20376;-71
2021/06/16 07:48:50;;;;;;;6.55;3.50;;;;;;;23.22;78.87;99597.44;6192759;22;20016;-71
2021/06/16 07:51:16;;;;;;;4.32;2.95;;;;;;;23.70;76.01;99593.22;6192947;22;20104;-71
2021/06/16 07:53:42;;;;;;;3.95;3.50;;;;;;;24.04;76.73;99599.69;6219713;22;20028;-71
2021/06/16 07:56:07;;;;;;;7.50;3.60;;;;;;;22.72;81.48;99611.31;6192740;22;20378;-71
2021/06/16 07:58:33;;;;;;;3.38;3.08;;;;;;;22.40;81.87;99614.75;6219475;22;20031;-71
2021/06/16 08:00:58;;;;;;;4.47;3.40;;;;;;;21.86;84.46;99629.63;6220127;22;20249;-71
2021/06/16 08:03:24;;;;;;;3.75;3.28;;;;;;;21.94;81.95;99637.59;6219103;22;20272;-70
2021/06/16 08:05:50;;;;;;;3.70;3.40;;;;;;;22.07;82.92;99617.50;6219068;23;20024;-70
2021/06/16 08:08:17;;;;;;;3.38;2.90;;;;;;;22.07;81.48;99637.41;6219245;22;20012;-71
2021/06/16 08:10:42;;;;;;;5.63;3.25;;;;;;;22.00;78.75;99618.13;6219359;22;20009;-71
2021/06/16 08:13:07;;;;;;;5.97;3.25;;;;;;;22.07;78.72;99614.09;6219301;22;20089;-71
2021/06/16 08:15:35;;;;;;;3.33;3.00;;;;;;;22.26;78.64;99624.63;6219074;23;20024;-71
2021/06/16 08:18:01;;;;;;;3.70;3.33;;;;;;;22.24;80.06;99635.09;6193303;22;20045;-71
2021/06/16 08:20:27;;;;;;;4.78;3.25;;;;;;;22.22;80.96;99636.97;6219720;22;20012;-70
2021/06/16 08:22:52;;;;;;;4.50;3.40;;;;;;;22.26;80.64;99645.34;6192822;22;20013;-71
2021/06/16 08:25:17;;;;;;;5.85;4.88;;;;;;;22.10;80.80;99638.00;6219449;22;20009;-71
2021/06/16 08:27:44;;;;;;;5.15;2.80;;;;;;;22.07;81.08;99648.59;6219323;22;20386;-71
2021/06/16 08:30:12;;;;;;;3.50;3.08;;;;;;;22.03;80.10;99639.44;6220529;22;20008;-71
2021/06/16 08:32:37;;;;;;;3.92;3.00;;;;;;;22.03;81.48;99646.38;6219649;22;20020;-71
2021/06/16 08:35:04;;;;;;;2.95;2.75;;;;;;;22.13;81.38;99650.69;6191639;22;20066;-71
2021/06/16 08:37:30;;;;;;;2.35;2.15;;;;;;;22.25;80.85;99654.88;6219159;22;20013;-71
2021/06/16 08:39:55;;;;;;;1.60;1.45;;;;;;;22.22;80.97;99659.50;6219020;22;20013;-71
2021/06/16 08:42:21;;;;;;;1.55;1.38;;;;;;;21.99;81.80;99669.09;6219039;22;20089;-71
2021/06/16 08:44:55;;;;;;;3.00;0.90;;;;;;;22.06;80.33;99672.03;6192351;22;20062;-71
2021/06/16 08:47:22;;;;;;;2.25;0.80;;;;;;;21.97;81.29;99655.44;6219013;22;20045;-70
2021/06/16 08:49:48;;;;;;;2.03;0.80;;;;;;;22.20;80.30;99659.63;6218993;23;20009;-70
2021/06/16 08:52:14;;;;;;;2.13;1.05;;;;;;;22.38;80.59;99667.66;6218885;22;20101;-71
2021/06/16 08:54:40;;;;;;;1.75;1.00;;;;;;;22.45;80.34;99663.63;6192505;22;20028;-71
2021/06/16 08:57:06;;;;;;;1.10;1.00;;;;;;;22.60;81.26;99666.75;6192595;22;20340;-71
2021/06/16 08:59:32;;;;;;;1.15;0.85;;;;;;;22.48;80.27;99654.78;6187503;22;20082;-70
2021/06/16 09:01:57;;;;;;;1.15;0.90;;;;;;;22.49;80.42;99669.38;6186769;22;20078;-70
2021/06/16 09:04:42;;;;;;;1.92;1.00;;;;;;;22.50;80.19;99671.03;6188872;23;20013;-70
2021/06/16 09:07:16;;;;;;;1.77;1.30;;;;;;;22.23;80.31;99687.84;6188732;23;20016;-70
2021/06/16 09:09:42;;;;;;;1.70;1.05;;;;;;;22.21;81.73;99681.16;6187123;22;20017;-71
2021/06/16 09:12:08;;;;;;;1.30;1.20;;;;;;;21.91;84.26;99689.59;6189009;23;20005;-71
2021/06/16 09:14:33;;;;;;;1.40;1.30;;;;;;;22.04;82.78;99685.09;6187383;23;20105;-71
2021/06/16 09:17:03;;;;;;;2.08;1.50;;;;;;;21.96;83.01;99692.66;6188682;23;20009;-71
2021/06/16 09:19:31;;;;;;;1.60;1.50;;;;;;;22.13;82.14;99694.72;6189125;23;20013;-71
2021/06/16 09:22:06;;;;;;;1.98;1.60;;;;;;;22.07;82.42;99690.03;6186960;22;20025;-71
2021/06/16 09:24:46;;;;;;;2.00;1.73;;;;;;;22.30;83.18;99683.00;6188763;23;20283;-71
2021/06/16 09:27:38;;;;;;;2.22;1.77;;;;;;;22.35;81.96;99688.63;6187391;22;20005;-70
2021/06/16 09:30:24;;;;;;;1.90;1.70;;;;;;;22.32;80.07;99689.69;6190022;23;20017;-71
2021/06/16 09:32:53;;;;;;;3.30;1.90;;;;;;;22.25;80.48;99708.44;6188530;23;20270;-71
2021/06/16 09:35:30;;;;;;;2.60;2.20;;;;;;;22.30;79.04;99707.13;6188798;23;20257;-71
2021/06/16 09:37:59;;;;;;;3.25;1.90;;;;;;;22.49;79.08;99697.88;6186954;22;20008;-71
2021/06/16 09:40:30;;;;;;;1.90;1.80;;;;;;;22.52;79.91;99708.00;6187135;22;20028;-71
2021/06/16 09:43:02;;;;;;;2.58;2.28;;;;;;;22.53;81.21;99702.69;6190909;23;20024;-71
2021/06/16 09:45:28;;;;;;;3.60;2.28;;;;;;;22.68;81.28;99700.66;6187161;23;20053;-71
2021/06/16 09:47:54;;;;;;;4.80;2.45;;;;;;;22.40;81.88;99712.41;6188807;23;20394;-72
2021/06/16 09:50:25;;;;;;;2.88;2.58;;;;;;;22.47;80.97;99713.56;6188408;23;20008;-71
2021/06/16 09:52:51;;;;;;;3.40;2.38;;;;;;;22.36;80.31;99717.00;6186930;22;20102;-71
2021/06/16 09:55:28;;;;;;;3.20;2.45;;;;;;;22.36;80.76;99724.78;6188767;23;20283;-71
2021/06/16 09:58:05;;;;;;;4.25;2.80;;;;;;;22.25;81.04;99734.34;6186794;22;20009;-71
2021/06/16 10:00:43;;;;;;;3.30;2.72;;;;;;;22.15;80.82;99742.03;6209415;23;20024;-71
2021/06/16 10:03:14;;;;;;;3.28;2.97;;;;;;;22.30;79.80;99732.25;6218688;22;20020;-72
2021/06/16 10:06:05;;;;;;;4.32;2.63;;;;;;;22.42;79.45;99728.66;6191727;22;20016;-72
2021/06/16 10:08:32;;;;;;;4.05;3.35;;;;;;;22.58;78.95;99729.06;6218370;23;20104;-72
2021/06/16 10:10:57;;;;;;;3.90;2.90;;;;;;;22.71;79.32;99728.91;6191639;22;20052;-72
2021/06/16 10:13:26;;;;;;;4.57;3.20;;;;;;;22.73;78.13;99729.59;6218915;22;20015;-72
2021/06/16 10:15:57;;;;;;;3.70;3.15;;;;;;;22.62;78.09;99727.06;6218574;22;20008;-72
2021/06/16 10:18:24;;;;;;;3.78;3.47;;;;;;;22.88;77.55;99731.75;6218639;22;20264;-72
2021/06/16 10:20:54;;;;;;;3.15;2.88;;;;;;;22.84;77.58;99732.94;6218723;22;20011;-72
2021/06/16 10:23:20;;;;;;;4.03;3.10;;;;;;;22.83;77.31;99741.69;6218444;22;20015;-72
2021/06/16 10:25:46;;;;;;;2.90;2.58;;;;;;;22.89;75.22;99748.13;6218632;22;20388;-72
2021/06/16 10:28:16;;;;;;;3.70;3.20;;;;;;;23.01;76.49;99747.13;6191990;22;20109;-72
2021/06/16 10:30:43;;;;;;;3.10;2.80;;;;;;;23.06;76.47;99752.75;6218406;22;20006;-72
2021/06/16 10:33:30;;;;;;;3.08;2.78;;;;;;;22.93;75.02;99765.91;6192249;22;20020;-72
2021/06/16 10:36:17;;;;;;;2.75;2.35;;;;;;;22.80;72.96;99765.25;6191942;22;20009;-72
2021/06/16 10:38:58;;;;;;;2.45;2.25;;;;;;;22.97;73.35;99758.72;6191854;22;20266;-72
2021/06/16 10:41:39;;;;;;;3.67;3.10;;;;;;;22.67;76.42;99772.41;6218351;23;20004;-72
2021/06/16 10:44:20;;;;;;;3.25;2.65;;;;;;;22.51;74.98;99765.94;6218243;23;20020;-71
2021/06/16 10:47:09;;;;;;;;;;;;;;;22.59;75.98;99771.38;6219677;22;20205;-72
2021/06/16 10:49:41;;;;;;;3.40;3.10;;;;;;;22.81;75.24;99772.13;6218451;22;19926;-71
2021/06/16 10:52:08;;;;;;;3.67;3.10;;;;;;;22.67;74.93;99775.00;6191627;22;20347;-71
2021/06/16 10:54:35;;;;;;;4.78;3.45;;;;;;;22.57;74.32;99778.41;6191728;22;20011;-71
2021/06/16 10:57:04;;;;;;;4.00;3.70;;;;;;;22.52;76.02;99777.97;6218372;22;20070;-71
2021/06/16 10:59:42;;;;;;;3.85;3.42;;;;;;;22.52;76.36;99770.19;6218003;23;20028;-71
2021/06/16 11:02:08;;;;;;;4.28;3.88;;;;;;;22.77;77.16;99778.50;6218084;23;20024;-71
2021/06/16 11:04:34;;;;;;;4.22;3.47;;;;;;;22.51;75.72;99784.91;6191619;22;20027;-71
2021/06/16 11:07:00;;;;;;;4.13;3.30;;;;;;;22.59;74.18;99779.16;6192357;23;20028;-71
2021/06/16 11:09:52;;;;;;;3.88;3.47;;;;;;;22.71;74.94;99775.56;6218489;22;20025;-71
2021/06/16 11:12:46;;;;;;;4.03;3.63;;;;;;;22.63;76.63;99776.19;6218051;23;20097;-72
2021/06/16 11:15:30;;;;;;;3.72;3.22;;;;;;;22.61;76.85;99772.06;6217890;23;20020;-72
2021/06/16 11:17:57;;;;;;;4.10;3.67;;;;;;;22.92;75.57;99776.41;6191219;22;20045;-71
2021/06/16 11:20:33;;;;;;;4.40;3.80;;;;;;;23.13;75.96;99780.66;6218172;22;20012;-71
2021/06/16 11:23:01;;;;;;;3.45;3.15;;;;;;;22.82;71.89;99772.94;6191286;22;20084;-71
2021/06/16 11:25:35;;;;;;;4.35;3.40;;;;;;;22.96;72.62;99776.03;6191726;22;20100;-71
2021/06/16 11:28:10;;;;;;;4.00;3.28;;;;;;;22.85;74.93;99783.88;6217955;23;20012;-71
2021/06/16 11:30:49;;;;;;;3.53;2.85;;;;;;;22.51;75.66;99791.88;6190786;22;20032;-71
2021/06/16 11:35:48;;;;;;;2.90;2.55;;;;;;;22.12;78.64;99809.63;6217846;23;20024;-71
2021/06/16 11:38:17;;;;;;;3.60;2.80;;;;;;;22.27;80.00;99808.41;6217728;23;20042;-71
2021/06/16 11:41:04;;;;;;;4.05;2.47;;;;;;;21.68;85.19;99809.63;6218171;23;20008;-71
2021/06/16 11:43:36;;;;;;;4.57;2.75;;;;;;;21.60;90.38;99809.38;6217993;22;20066;-72
2021/06/16 11:46:04;;;;;;;3.35;2.58;;;;;;;20.99;94.49;99809.69;6217852;23;20011;-71
2021/06/16 11:48:30;;;;;;;2.70;2.45;;;;;;;21.02;95.81;99802.56;6218440;22;20004;-71
2021/06/16 11:50:55;;;;;;;3.45;2.53;;;;;;;21.11;96.72;99790.72;6191518;22;20294;-71
2021/06/16 11:53:30;;;;;;;3.40;2.80;;;;;;;21.21;97.03;99804.63;6217814;22;20012;-71